Time;durP1;ratioP1;P1;durP2;ratioP2;P2;SDS_P1;SDS_P2;PMS_P1;PMS_P2;Temp;Humidity;BMP_temperature;BMP_pressure;BME280_temperature;BME280_humidity;BME280_pressure;Samples;Min_cycle;Max_cycle;Signal;HPM_P1;HPM_P2
2021/11/10 00:01:06;;;;;;;13.50;5.95;;;7.70;96.80;;;;;;5044602;28;20025;-84
2021/11/10 00:03:32;;;;;;;11.77;5.63;;;7.70;97.00;;;;;;5043699;28;20024;-83
2021/11/10 00:05:58;;;;;;;12.00;6.10;;;7.70;96.90;;;;;;5057099;28;20025;-84
2021/11/10 00:08:23;;;;;;;12.93;6.32;;;7.70;96.90;;;;;;5044000;28;20025;-84
2021/11/10 00:10:49;;;;;;;15.55;6.95;;;7.70;96.90;;;;;;5049371;28;20040;-84
2021/11/10 00:13:20;;;;;;;15.20;6.40;;;7.70;96.90;;;;;;5080463;28;20085;-84
2021/11/10 00:15:52;;;;;;;13.27;7.65;;;7.60;97.00;;;;;;5048875;28;20037;-84
2021/11/10 00:18:18;;;;;;;13.00;6.10;;;7.60;97.00;;;;;;5075497;28;20008;-83
2021/11/10 00:20:45;;;;;;;13.27;5.97;;;7.60;97.10;;;;;;5065482;28;20024;-84
2021/11/10 00:23:11;;;;;;;13.40;6.32;;;7.60;97.00;;;;;;5069054;28;20021;-83
2021/11/10 00:25:40;;;;;;;13.02;6.50;;;7.50;97.00;;;;;;5040669;28;20116;-83
2021/11/10 00:28:06;;;;;;;12.82;6.55;;;7.50;97.10;;;;;;5040263;28;20043;-83
2021/11/10 00:30:32;;;;;;;11.80;6.60;;;7.50;97.10;;;;;;5076090;28;20493;-84
2021/11/10 00:32:58;;;;;;;19.27;8.75;;;7.50;97.30;;;;;;5058761;28;20028;-84
2021/11/10 00:35:23;;;;;;;11.48;6.18;;;7.50;97.30;;;;;;5052320;28;20055;-83
2021/11/10 00:37:50;;;;;;;14.15;7.25;;;7.50;97.30;;;;;;5062618;28;20030;-84
2021/11/10 00:40:15;;;;;;;14.48;6.28;;;7.40;97.20;;;;;;5081049;28;20035;-83
2021/11/10 00:42:44;;;;;;;15.70;7.40;;;7.40;97.20;;;;;;5068092;28;20056;-87
2021/11/10 00:45:11;;;;;;;11.77;6.53;;;7.40;97.30;;;;;;5087626;28;20028;-87
2021/11/10 00:47:36;;;;;;;14.15;7.00;;;7.40;97.30;;;;;;5059436;28;20111;-87
2021/11/10 00:50:04;;;;;;;16.92;7.53;;;7.30;97.30;;;;;;5083037;28;20048;-83
2021/11/10 00:52:30;;;;;;;14.68;7.03;;;7.30;97.20;;;;;;5088641;28;20025;-83
2021/11/10 00:54:55;;;;;;;16.05;6.50;;;7.30;97.20;;;;;;5060447;28;20053;-82
2021/11/10 00:57:21;;;;;;;13.70;6.82;;;7.30;97.30;;;;;;5077960;28;20024;-84
2021/11/10 00:59:47;;;;;;;12.75;6.88;;;7.30;97.30;;;;;;5070687;28;20441;-83
2021/11/10 01:02:15;;;;;;;14.70;6.40;;;7.30;97.30;;;;;;5068838;28;20044;-88
2021/11/10 01:04:41;;;;;;;14.70;7.30;;;7.20;97.30;;;;;;5065035;28;20016;-87
2021/11/10 01:07:07;;;;;;;12.20;6.93;;;7.20;97.40;;;;;;5053052;28;20516;-88
2021/11/10 01:09:40;;;;;;;14.50;6.70;;;7.20;97.50;;;;;;5024005;28;20039;-87
2021/11/10 01:12:10;;;;;;;13.80;6.90;;;7.20;97.60;;;;;;5053415;28;20374;-87
2021/11/10 01:14:38;;;;;;;13.30;6.80;;;7.20;97.50;;;;;;5078992;28;20016;-87
2021/11/10 01:17:04;;;;;;;14.00;7.00;;;7.10;97.60;;;;;;5052144;28;20048;-87
2021/11/10 01:19:29;;;;;;;14.45;6.90;;;7.10;97.60;;;;;;5049804;28;20013;-87
2021/11/10 01:21:55;;;;;;;15.20;6.82;;;7.10;97.70;;;;;;5074565;28;20461;-87
2021/11/10 01:24:21;;;;;;;13.95;6.85;;;7.10;97.70;;;;;;5060064;28;20025;-87
2021/11/10 01:26:47;;;;;;;15.20;6.97;;;7.10;97.70;;;;;;5059946;28;20470;-88
2021/11/10 01:29:13;;;;;;;10.45;6.20;;;7.00;97.60;;;;;;5043217;28;20063;-87
2021/11/10 01:31:39;;;;;;;12.73;6.30;;;7.00;97.60;;;;;;5061199;28;20039;-87
2021/11/10 01:34:07;;;;;;;17.70;6.97;;;7.00;97.50;;;;;;5063520;28;20477;-87
2021/11/10 01:36:37;;;;;;;16.40;6.93;;;7.00;97.50;;;;;;5051029;28;20032;-87
2021/11/10 01:39:04;;;;;;;13.30;6.53;;;6.90;97.40;;;;;;5054203;28;20016;-87
2021/11/10 01:41:37;;;;;;;12.23;6.57;;;6.90;97.50;;;;;;5082578;28;20461;-87
2021/11/10 01:44:02;;;;;;;14.50;6.47;;;6.90;97.50;;;;;;5081013;28;20039;-88
2021/11/10 01:46:32;;;;;;;14.05;6.50;;;6.90;97.70;;;;;;5068907;28;20033;-88
2021/11/10 01:48:58;;;;;;;11.75;5.55;;;6.90;97.80;;;;;;5075053;28;20052;-87
2021/11/10 01:51:24;;;;;;;8.80;5.65;;;6.80;97.50;;;;;;5071054;28;20028;-88
2021/11/10 01:53:52;;;;;;;8.55;5.20;;;6.80;97.30;;;;;;5067714;28;20021;-88
2021/11/10 01:56:19;;;;;;;12.00;5.40;;;6.70;97.50;;;;;;5071205;28;20012;-88
2021/11/10 01:58:45;;;;;;;11.02;6.15;;;6.70;97.50;;;;;;5039131;28;20079;-87
2021/11/10 02:01:11;;;;;;;9.57;5.78;;;6.60;97.40;;;;;;5042179;28;20029;-88
2021/11/10 02:03:37;;;;;;;9.10;5.00;;;6.60;97.60;;;;;;5054752;28;20024;-87
2021/11/10 02:06:02;;;;;;;11.07;5.10;;;6.50;97.50;;;;;;5015797;28;20039;-88
2021/11/10 02:08:28;;;;;;;9.20;5.25;;;6.60;97.50;;;;;;5050288;28;20023;-87
2021/11/10 02:10:56;;;;;;;8.13;5.20;;;6.50;97.50;;;;;;5061198;28;20040;-87
2021/11/10 02:13:23;;;;;;;9.70;5.70;;;6.50;97.50;;;;;;5061066;28;20020;-87
2021/11/10 02:15:50;;;;;;;11.35;5.72;;;6.50;97.70;;;;;;5096557;28;20024;-88
2021/11/10 02:18:15;;;;;;;8.82;5.72;;;6.50;97.70;;;;;;5048305;28;20027;-87
2021/11/10 02:20:41;;;;;;;9.65;5.20;;;6.40;97.70;;;;;;5047009;28;20122;-87
2021/11/10 02:23:08;;;;;;;10.27;5.40;;;6.40;97.80;;;;;;5060966;28;20036;-88
2021/11/10 02:25:34;;;;;;;10.38;5.30;;;6.40;97.90;;;;;;5084542;28;20016;-87
2021/11/10 02:28:03;;;;;;;12.10;6.00;;;6.40;97.90;;;;;;5054458;28;20032;-87
2021/11/10 02:30:29;;;;;;;10.43;5.63;;;6.40;97.90;;;;;;5065961;28;20029;-87
2021/11/10 02:33:00;;;;;;;9.80;5.95;;;6.40;97.90;;;;;;5064405;28;20035;-87
2021/11/10 02:35:28;;;;;;;10.85;6.13;;;6.40;98.00;;;;;;5068311;28;20076;-87
2021/11/10 02:38:01;;;;;;;13.35;5.90;;;6.40;97.90;;;;;;5088890;28;20064;-87
2021/11/10 02:40:27;;;;;;;9.65;6.13;;;6.40;97.90;;;;;;5075435;28;20480;-87
2021/11/10 02:42:54;;;;;;;9.93;5.95;;;6.30;97.90;;;;;;5061157;28;20433;-88
2021/11/10 02:45:21;;;;;;;12.10;6.30;;;6.30;98.00;;;;;;5078434;28;20012;-87
2021/11/10 02:47:47;;;;;;;11.32;6.05;;;6.30;97.90;;;;;;5071662;28;20021;-87
2021/11/10 02:50:13;;;;;;;16.25;7.05;;;6.30;98.00;;;;;;5061068;28;20027;-87
2021/11/10 02:52:38;;;;;;;13.52;6.22;;;6.30;98.00;;;;;;5044621;28;20033;-87
2021/11/10 02:55:06;;;;;;;13.07;6.65;;;6.30;98.00;;;;;;5040610;28;20097;-88
2021/11/10 02:57:31;;;;;;;9.57;6.07;;;6.30;98.10;;;;;;5079310;28;20193;-88
2021/11/10 02:59:57;;;;;;;11.50;6.35;;;6.20;98.10;;;;;;5067442;28;20027;-87
2021/11/10 03:02:30;;;;;;;10.35;6.18;;;6.20;98.10;;;;;;5042706;28;20052;-87
2021/11/10 03:04:57;;;;;;;14.20;6.15;;;6.20;98.10;;;;;;5063016;28;20037;-88
2021/11/10 03:07:23;;;;;;;14.30;7.82;;;6.20;98.30;;;;;;5041485;28;20028;-87
2021/11/10 03:09:49;;;;;;;15.10;6.32;;;6.20;98.20;;;;;;5065519;28;20127;-87
2021/11/10 03:12:16;;;;;;;14.68;6.82;;;6.10;98.40;;;;;;5066145;28;20032;-88
2021/11/10 03:14:43;;;;;;;12.73;6.72;;;6.20;98.20;;;;;;5085346;28;20032;-87
2021/11/10 03:17:12;;;;;;;13.57;6.10;;;6.10;98.20;;;;;;5083267;28;20061;-88
2021/11/10 03:19:38;;;;;;;14.23;6.80;;;6.20;98.30;;;;;;5080862;28;20028;-87
2021/11/10 03:22:05;;;;;;;11.90;6.30;;;6.10;98.20;;;;;;5080605;28;20573;-87
2021/11/10 03:24:32;;;;;;;13.15;6.97;;;6.10;98.20;;;;;;5071539;28;20020;-87
2021/11/10 03:26:57;;;;;;;11.07;6.68;;;6.10;98.30;;;;;;5059239;28;20028;-88
2021/11/10 03:29:23;;;;;;;17.30;6.82;;;6.10;98.30;;;;;;5056195;28;20547;-87
2021/11/10 03:31:49;;;;;;;12.73;6.70;;;6.10;98.30;;;;;;5059504;28;20505;-87
2021/11/10 03:34:34;;;;;;;14.45;6.53;;;6.00;98.30;;;;;;5057129;28;20560;-87
2021/11/10 03:37:00;;;;;;;13.05;6.18;;;6.10;98.30;;;;;;5091726;28;20507;-87
2021/11/10 03:39:26;;;;;;;9.82;5.93;;;6.00;98.30;;;;;;5079717;28;20035;-87
2021/11/10 03:41:52;;;;;;;14.70;6.75;;;6.00;98.30;;;;;;5051021;28;20488;-88
2021/11/10 03:44:18;;;;;;;12.48;6.35;;;6.00;98.30;;;;;;5052039;28;20051;-87
2021/11/10 03:46:45;;;;;;;14.60;6.82;;;6.00;98.20;;;;;;5080203;28;20023;-87
2021/11/10 03:49:11;;;;;;;13.32;6.60;;;6.00;98.30;;;;;;5061849;28;20544;-87
2021/11/10 03:51:38;;;;;;;13.32;6.72;;;6.00;98.40;;;;;;5027517;28;20029;-87
2021/11/10 03:54:03;;;;;;;12.20;6.80;;;5.90;98.40;;;;;;5043480;28;20024;-87
2021/11/10 03:56:29;;;;;;;11.57;6.32;;;5.90;98.50;;;;;;5049165;28;20022;-87
2021/11/10 03:58:55;;;;;;;11.65;6.47;;;5.90;98.50;;;;;;5085427;28;20025;-88
2021/11/10 04:01:21;;;;;;;13.18;6.90;;;5.90;98.50;;;;;;5042770;28;20029;-87
2021/11/10 04:03:47;;;;;;;13.50;6.22;;;5.90;98.40;;;;;;5069629;28;20020;-87
2021/11/10 04:06:13;;;;;;;11.00;6.10;;;5.90;98.40;;;;;;5095354;28;20050;-87
2021/11/10 04:08:38;;;;;;;15.48;6.78;;;5.90;98.50;;;;;;5067973;28;20016;-87
2021/11/10 04:11:04;;;;;;;12.82;6.50;;;5.80;98.40;;;;;;5049628;28;20381;-87
2021/11/10 04:13:34;;;;;;;11.23;6.68;;;5.80;98.50;;;;;;5079348;28;20039;-87
2021/11/10 04:16:00;;;;;;;13.77;7.25;;;5.80;98.50;;;;;;5068328;28;20031;-87
2021/11/10 04:18:32;;;;;;;11.75;6.47;;;5.80;98.60;;;;;;5061539;28;20027;-87
2021/11/10 04:20:59;;;;;;;13.82;6.47;;;5.80;98.60;;;;;;5070245;28;20085;-87
2021/11/10 04:23:25;;;;;;;11.50;6.57;;;5.80;98.70;;;;;;5045991;28;20029;-87
2021/11/10 04:25:51;;;;;;;14.32;6.35;;;5.80;98.80;;;;;;5076581;22;20431;-88
2021/11/10 04:28:16;;;;;;;12.55;6.78;;;5.80;98.80;;;;;;5041053;28;20031;-87
2021/11/10 04:30:42;;;;;;;12.25;6.25;;;5.80;98.70;;;;;;5058058;28;20659;-87
2021/11/10 04:33:08;;;;;;;15.70;6.25;;;5.70;98.70;;;;;;5041343;28;20096;-88
2021/11/10 04:35:33;;;;;;;13.40;6.30;;;5.70;98.70;;;;;;5041479;28;20044;-89
2021/11/10 04:37:59;;;;;;;10.73;5.32;;;5.70;98.70;;;;;;5038125;28;20447;-89
2021/11/10 04:40:25;;;;;;;11.80;5.78;;;5.70;98.70;;;;;;5041239;28;20487;-89
2021/11/10 04:42:50;;;;;;;11.40;6.28;;;5.70;99.00;;;;;;5041381;28;20021;-89
2021/11/10 04:45:23;;;;;;;13.20;6.22;;;5.70;99.00;;;;;;5040750;28;20058;-89
2021/11/10 04:47:49;;;;;;;12.73;5.95;;;5.60;99.20;;;;;;5042343;28;20017;-89
2021/11/10 04:50:15;;;;;;;10.80;5.35;;;5.60;98.90;;;;;;5040930;28;20081;-89
2021/11/10 04:52:41;;;;;;;11.00;5.72;;;5.60;99.20;;;;;;5057828;28;20024;-87
2021/11/10 04:55:07;;;;;;;14.05;6.55;;;5.60;99.30;;;;;;5040904;28;20477;-89
2021/11/10 04:57:33;;;;;;;11.40;5.70;;;5.60;99.10;;;;;;5038456;28;20025;-88
2021/11/10 04:59:59;;;;;;;11.82;5.97;;;5.50;99.00;;;;;;5040962;28;20035;-88
2021/11/10 05:02:25;;;;;;;12.95;5.93;;;5.60;98.90;;;;;;5040933;28;20094;-88
2021/11/10 05:04:53;;;;;;;11.95;6.40;;;5.50;98.90;;;;;;5040853;28;20501;-89
2021/11/10 05:07:19;;;;;;;12.00;6.43;;;5.50;99.00;;;;;;5057540;28;20107;-88
2021/11/10 05:09:45;;;;;;;10.35;6.10;;;5.50;99.00;;;;;;5039612;28;20556;-88
2021/11/10 05:12:30;;;;;;;10.00;6.22;;;5.50;98.90;;;;;;5040471;28;20039;-88
2021/11/10 05:15:11;;;;;;;10.40;6.70;;;5.50;98.90;;;;;;5039862;28;20039;-88
2021/11/10 05:17:37;;;;;;;11.82;6.28;;;5.40;98.90;;;;;;5040703;28;20159;-88
2021/11/10 05:20:03;;;;;;;11.98;6.40;;;5.40;98.80;;;;;;5057034;28;20112;-88
2021/11/10 05:22:29;;;;;;;11.82;6.40;;;5.40;98.90;;;;;;5074718;28;20025;-88
2021/11/10 05:24:55;;;;;;;11.05;6.88;;;5.40;98.90;;;;;;5040215;28;20032;-88
2021/11/10 05:27:21;;;;;;;12.07;6.45;;;5.40;99.00;;;;;;5040541;28;20063;-89
2021/11/10 05:29:46;;;;;;;11.73;6.60;;;5.40;99.10;;;;;;5074834;28;20351;-87
2021/11/10 05:32:12;;;;;;;15.43;7.28;;;5.40;99.00;;;;;;5056634;28;20040;-88
2021/11/10 05:34:38;;;;;;;11.77;6.53;;;5.40;98.90;;;;;;5040316;28;20027;-88
2021/11/10 05:37:04;;;;;;;13.95;7.20;;;5.30;98.90;;;;;;5039485;28;20107;-88
2021/11/10 05:39:30;;;;;;;12.88;6.72;;;5.40;99.00;;;;;;5036812;28;20308;-88
2021/11/10 05:41:56;;;;;;;12.73;7.15;;;5.30;99.00;;;;;;5041585;28;20063;-87
2021/11/10 05:44:22;;;;;;;18.45;6.43;;;5.30;99.00;;;;;;5062199;28;20035;-87
2021/11/10 05:46:48;;;;;;;11.63;7.05;;;5.30;99.10;;;;;;5041251;28;20032;-87
2021/11/10 05:49:13;;;;;;;10.65;6.05;;;5.30;99.10;;;;;;5075109;28;20476;-87
2021/11/10 05:51:39;;;;;;;12.98;6.57;;;5.30;99.10;;;;;;5041944;28;20032;-87
2021/11/10 05:54:05;;;;;;;12.00;7.25;;;5.20;99.10;;;;;;5041449;28;20031;-87
2021/11/10 05:56:36;;;;;;;10.98;6.45;;;5.20;99.20;;;;;;5056614;28;20407;-86
2021/11/10 05:59:03;;;;;;;9.93;6.10;;;5.20;99.20;;;;;;5058060;28;20021;-87
2021/11/10 06:01:29;;;;;;;13.25;6.75;;;5.20;99.10;;;;;;5041276;28;20031;-87
2021/11/10 06:03:55;;;;;;;10.95;6.95;;;5.20;99.10;;;;;;5057482;28;20037;-87
2021/11/10 06:06:22;;;;;;;11.60;6.85;;;5.10;99.00;;;;;;5074305;28;20489;-87
2021/11/10 06:08:47;;;;;;;11.70;6.53;;;5.10;99.00;;;;;;5058838;28;20510;-87
2021/11/10 06:11:13;;;;;;;11.00;6.53;;;5.10;99.00;;;;;;5044137;28;20033;-87
2021/11/10 06:13:39;;;;;;;13.20;6.57;;;5.10;99.00;;;;;;5071242;28;20017;-87
2021/11/10 06:16:06;;;;;;;12.63;6.57;;;5.10;99.00;;;;;;5059916;28;20020;-87
2021/11/10 06:19:00;;;;;;;12.80;6.97;;;5.10;99.10;;;;;;5045495;28;20050;-87
2021/11/10 06:21:26;;;;;;;10.60;6.70;;;5.10;99.20;;;;;;5067187;28;20447;-87
2021/11/10 06:23:51;;;;;;;12.48;6.60;;;5.10;99.20;;;;;;5047259;28;20020;-86
2021/11/10 06:26:17;;;;;;;12.40;7.00;;;5.00;99.20;;;;;;5064152;28;20063;-87
2021/11/10 06:28:43;;;;;;;11.30;7.25;;;5.00;99.20;;;;;;5058811;28;20028;-87
2021/11/10 06:31:09;;;;;;;14.13;7.05;;;5.00;99.20;;;;;;5040940;28;20036;-87
2021/11/10 06:33:35;;;;;;;13.52;6.97;;;5.00;99.40;;;;;;5057600;28;20111;-89
2021/11/10 06:36:02;;;;;;;13.02;7.20;;;5.00;99.50;;;;;;5040059;28;20055;-88
2021/11/10 06:38:27;;;;;;;13.75;7.35;;;5.10;99.70;;;;;;5056442;28;20464;-89
2021/11/10 06:40:53;;;;;;;13.70;7.53;;;5.00;99.70;;;;;;5056207;28;20029;-88
2021/11/10 06:43:19;;;;;;;14.15;8.27;;;5.00;99.70;;;;;;5050079;28;20473;-89
2021/11/10 06:45:45;;;;;;;14.38;7.25;;;5.00;99.60;;;;;;5040497;28;20035;-88
2021/11/10 06:48:10;;;;;;;12.15;6.88;;;5.00;99.60;;;;;;5040698;28;20029;-89
2021/11/10 06:50:36;;;;;;;12.68;7.70;;;5.00;99.50;;;;;;5040325;28;20088;-89
2021/11/10 06:53:02;;;;;;;11.65;6.93;;;5.00;99.40;;;;;;5057081;28;20484;-89
2021/11/10 06:55:30;;;;;;;15.95;6.38;;;5.00;99.40;;;;;;5061318;28;20021;-89
2021/11/10 06:57:56;;;;;;;12.82;6.68;;;4.90;99.40;;;;;;5040938;28;20036;-88
2021/11/10 07:00:22;;;;;;;11.73;7.00;;;4.90;99.30;;;;;;5074841;28;20016;-89
2021/11/10 07:02:48;;;;;;;12.13;7.18;;;4.90;99.40;;;;;;5074296;28;20036;-89
2021/11/10 07:05:13;;;;;;;15.93;7.18;;;4.90;99.30;;;;;;5040293;28;20393;-88
2021/11/10 07:07:39;;;;;;;13.10;6.97;;;4.90;99.30;;;;;;5042091;28;20461;-89
2021/11/10 07:10:06;;;;;;;11.75;7.28;;;4.80;99.50;;;;;;5043837;28;20036;-88
2021/11/10 07:12:32;;;;;;;9.80;6.68;;;4.80;99.40;;;;;;5059940;28;20027;-89
2021/11/10 07:14:57;;;;;;;10.50;6.85;;;4.80;99.40;;;;;;5076897;28;20063;-89
2021/11/10 07:17:24;;;;;;;13.07;7.40;;;4.90;99.50;;;;;;5078556;28;20381;-88
2021/11/10 07:19:51;;;;;;;12.63;7.07;;;4.80;99.70;;;;;;5044333;28;20021;-89
2021/11/10 07:22:17;;;;;;;12.70;7.57;;;4.80;99.80;;;;;;5076907;28;20024;-88
2021/11/10 07:24:43;;;;;;;14.13;7.55;;;4.80;99.80;;;;;;5060363;28;20032;-87
2021/11/10 07:27:09;;;;;;;15.07;7.85;;;4.90;99.90;;;;;;5049040;28;20041;-83
2021/11/10 07:29:34;;;;;;;14.45;7.65;;;4.80;99.90;;;;;;5028660;28;20021;-87
2021/11/10 07:32:00;;;;;;;12.38;7.63;;;4.90;99.90;;;;;;5025205;28;20382;-87
2021/11/10 07:34:26;;;;;;;11.98;7.13;;;4.80;99.90;;;;;;5041496;28;20028;-87
2021/11/10 07:36:52;;;;;;;14.85;7.45;;;4.90;99.90;;;;;;5025904;28;20021;-87
2021/11/10 07:39:18;;;;;;;14.57;7.88;;;4.90;99.90;;;;;;5025824;28;20021;-87
2021/11/10 07:41:47;;;;;;;11.77;7.10;;;4.90;99.90;;;;;;5014446;28;20029;-87
2021/11/10 07:44:13;;;;;;;17.02;7.75;;;4.90;99.90;;;;;;5050545;28;20032;-87
2021/11/10 07:46:50;;;;;;;14.65;8.07;;;4.90;99.90;;;;;;5058935;28;20469;-87
2021/11/10 07:49:28;;;;;;;14.10;8.32;;;4.90;99.90;;;;;;5042666;28;20051;-87
2021/11/10 07:51:54;;;;;;;16.27;7.38;;;4.90;99.90;;;;;;5041894;28;20057;-87
2021/11/10 07:54:20;;;;;;;12.60;7.85;;;4.90;99.90;;;;;;5026474;28;20032;-87
2021/11/10 07:56:48;;;;;;;15.43;8.45;;;4.90;99.90;;;;;;5040802;28;20045;-87
2021/11/10 07:59:13;;;;;;;14.23;7.70;;;5.00;99.90;;;;;;5049128;28;20033;-87
2021/11/10 08:01:39;;;;;;;13.13;7.45;;;5.00;99.90;;;;;;5047832;28;20107;-87
2021/11/10 08:04:05;;;;;;;16.73;9.13;;;5.00;99.90;;;;;;5023985;28;20029;-87
2021/11/10 08:06:31;;;;;;;14.90;7.38;;;5.00;99.90;;;;;;5009054;28;20458;-87
2021/11/10 08:08:57;;;;;;;17.85;7.93;;;5.10;99.90;;;;;;5042966;28;20401;-87
2021/11/10 08:11:22;;;;;;;15.43;8.02;;;5.10;99.90;;;;;;5026121;28;20040;-87
2021/11/10 08:13:48;;;;;;;14.20;7.47;;;5.10;99.90;;;;;;5027124;28;20477;-87
2021/11/10 08:16:14;;;;;;;18.73;8.38;;;5.20;99.90;;;;;;5034347;28;20036;-87
2021/11/10 08:18:40;;;;;;;14.23;7.38;;;5.20;99.90;;;;;;5017588;28;20086;-87
2021/11/10 08:21:05;;;;;;;13.93;7.85;;;5.20;99.90;;;;;;5055988;28;20040;-87
2021/11/10 08:23:32;;;;;;;13.13;7.80;;;5.30;99.90;;;;;;5044900;28;20042;-87
2021/11/10 08:25:58;;;;;;;15.05;8.32;;;5.30;99.90;;;;;;5056831;28;20049;-88
2021/11/10 08:28:25;;;;;;;13.27;8.05;;;5.30;99.90;;;;;;5054759;28;20032;-87
2021/11/10 08:30:52;;;;;;;13.35;8.38;;;5.40;99.90;;;;;;5049309;28;20016;-87
2021/11/10 08:33:20;;;;;;;15.95;7.90;;;5.40;99.90;;;;;;5024834;28;20112;-87
2021/11/10 08:35:47;;;;;;;12.13;7.50;;;5.40;99.90;;;;;;5042034;28;20024;-87
2021/11/10 08:38:13;;;;;;;15.55;7.43;;;5.50;99.90;;;;;;5057705;28;20021;-88
2021/11/10 08:40:39;;;;;;;13.05;6.82;;;5.50;99.90;;;;;;5060551;28;20013;-87
2021/11/10 08:43:11;;;;;;;12.13;6.88;;;5.60;99.90;;;;;;5082567;28;20021;-87
2021/11/10 08:45:38;;;;;;;13.38;6.93;;;5.70;99.90;;;;;;5046586;28;20023;-87
2021/11/10 08:48:05;;;;;;;13.60;6.97;;;5.70;99.90;;;;;;5046570;28;20023;-87
2021/11/10 08:50:36;;;;;;;10.55;7.05;;;5.80;99.90;;;;;;5039521;28;20035;-86
2021/11/10 08:53:05;;;;;;;12.10;6.00;;;5.90;99.90;;;;;;5082257;28;20037;-87
2021/11/10 08:55:34;;;;;;;12.30;6.32;;;5.90;99.90;;;;;;5048260;28;20115;-87
2021/11/10 08:58:00;;;;;;;12.45;7.10;;;6.00;99.90;;;;;;5061061;28;20016;-85
2021/11/10 09:00:38;;;;;;;18.15;8.30;;;6.00;99.90;;;;;;5076480;28;20013;-86
2021/11/10 09:03:20;;;;;;;13.05;8.30;;;6.10;99.90;;;;;;5063198;28;20067;-87
2021/11/10 09:05:46;;;;;;;16.80;8.27;;;6.10;99.90;;;;;;5070506;28;20097;-86
2021/11/10 09:08:13;;;;;;;13.50;7.38;;;6.20;99.90;;;;;;5064631;28;20008;-86
2021/11/10 09:10:49;;;;;;;14.55;7.75;;;6.30;99.90;;;;;;5052207;28;20082;-87
2021/11/10 09:13:26;;;;;;;16.02;8.50;;;6.40;99.90;;;;;;5062227;28;20021;-87
2021/11/10 09:16:12;;;;;;;19.10;9.38;;;6.40;99.90;;;;;;5065673;28;20027;-87
2021/11/10 09:18:41;;;;;;;20.15;9.65;;;6.50;99.90;;;;;;5042751;28;20025;-88
2021/11/10 09:21:19;;;;;;;23.15;11.02;;;6.50;99.90;;;;;;5089453;28;20035;-88
2021/11/10 09:24:03;;;;;;;17.52;10.20;;;6.60;99.90;;;;;;5098775;28;20443;-88
2021/11/10 09:26:40;;;;;;;22.05;10.82;;;6.70;99.90;;;;;;5068875;28;20103;-88
2021/11/10 09:32:05;;;;;;;18.15;9.98;;;6.80;99.90;;;;;;5081258;28;20510;-88
2021/11/10 09:34:33;;;;;;;23.45;9.75;;;6.90;99.90;;;;;;5079356;28;20041;-88
2021/11/10 09:36:59;;;;;;;23.85;10.52;;;7.00;99.90;;;;;;5046191;28;20016;-88
2021/11/10 09:39:25;;;;;;;19.00;9.38;;;7.00;99.90;;;;;;5046321;28;20503;-88
2021/11/10 09:42:15;;;;;;;22.58;9.82;;;7.10;99.90;;;;;;5054040;28;20035;-88
2021/11/10 09:44:53;;;;;;;16.20;9.20;;;7.20;99.90;;;;;;5086206;28;20029;-88
2021/11/10 09:47:57;;;;;;;21.67;9.40;;;7.30;99.90;;;;;;5091553;28;20108;-88
2021/11/10 09:50:40;;;;;;;16.33;9.52;;;7.30;99.90;;;;;;5031085;28;20028;-88
2021/11/10 09:53:10;;;;;;;16.92;8.65;;;7.50;99.90;;;;;;5094059;28;20111;-88
2021/11/10 09:55:42;;;;;;;13.57;8.02;;;7.50;99.90;;;;;;5057562;28;20020;-88
2021/11/10 09:58:14;;;;;;;15.27;7.95;;;7.60;99.90;;;;;;5044062;28;20025;-89
2021/11/10 10:01:11;;;;;;;16.13;8.50;;;7.70;99.90;;;;;;5046298;28;20013;-89
2021/11/10 10:03:56;;;;;;;15.07;7.57;;;7.80;99.90;;;;;;5059162;28;20057;-89
2021/11/10 10:06:27;;;;;;;19.40;8.32;;;7.90;99.90;;;;;;5031012;28;20037;-89
2021/11/10 10:09:06;;;;;;;16.50;8.50;;;7.90;99.90;;;;;;5043277;28;20106;-89
2021/11/10 10:11:35;;;;;;;15.10;7.70;;;8.10;99.90;;;;;;5067380;28;20079;-89
2021/11/10 10:14:28;;;;;;;18.10;8.30;;;8.10;99.90;;;;;;5064282;28;20028;-89
2021/11/10 10:16:55;;;;;;;16.00;7.85;;;8.20;99.90;;;;;;5042556;28;20044;-89
2021/11/10 10:19:38;;;;;;;13.35;6.95;;;8.30;99.90;;;;;;5075285;28;20050;-90
2021/11/10 10:22:04;;;;;;;13.43;7.95;;;8.40;99.90;;;;;;5042665;28;20043;-89
2021/11/10 10:25:13;;;;;;;12.88;7.32;;;8.50;99.90;;;;;;5043247;28;20028;-89
2021/11/10 10:27:58;;;;;;;12.68;6.97;;;8.60;99.90;;;;;;5042180;28;20049;-89
2021/11/10 10:31:01;;;;;;;12.40;6.90;;;8.70;99.90;;;;;;5024233;28;20041;-89
2021/11/10 10:33:36;;;;;;;13.93;6.85;;;8.80;99.90;;;;;;5044893;28;20025;-89
2021/11/10 10:36:47;;;;;;;12.20;6.93;;;8.90;99.90;;;;;;5040584;28;20078;-89
2021/11/10 10:39:25;;;;;;;17.90;8.13;;;9.00;99.70;;;;;;5037481;28;20025;-86
2021/11/10 10:41:55;;;;;;;19.85;9.18;;;9.10;99.60;;;;;;5022737;28;20170;-87
2021/11/10 10:44:29;;;;;;;16.95;8.98;;;9.20;99.30;;;;;;5086930;28;20047;-88
2021/11/10 10:47:22;;;;;;;12.07;7.43;;;9.30;99.30;;;;;;5038623;28;20037;-87
2021/11/10 10:50:06;;;;;;;15.70;7.72;;;9.40;99.30;;;;;;5039856;28;20067;-87
2021/11/10 10:52:54;;;;;;;16.45;8.82;;;9.50;99.20;;;;;;5038192;28;20029;-87
2021/11/10 10:55:39;;;;;;;16.05;8.07;;;9.70;99.20;;;;;;5047529;28;20025;-87
2021/11/10 10:58:11;;;;;;;13.80;7.80;;;9.80;99.10;;;;;;5044254;28;20044;-88
2021/11/10 11:00:54;;;;;;;14.27;7.43;;;9.90;98.90;;;;;;5044017;28;20085;-88
2021/11/10 11:03:39;;;;;;;18.13;8.75;;;10.00;98.70;;;;;;5043625;28;20164;-87
2021/11/10 11:06:27;;;;;;;10.82;6.90;;;10.10;98.70;;;;;;5011058;28;20035;-88
2021/11/10 11:09:47;;;;;;;14.90;7.97;;;10.20;98.70;;;;;;5018572;28;20094;-87
2021/11/10 11:18:08;;;;;;;16.67;8.18;;;10.60;97.90;;;;;;5018231;28;20455;-88
2021/11/10 11:20:36;;;;;;;17.95;8.70;;;10.70;98.00;;;;;;4980589;28;20038;-88
2021/11/10 11:23:03;;;;;;;16.67;8.32;;;10.70;97.30;;;;;;4995108;28;20097;-84
2021/11/10 11:25:31;;;;;;;17.63;8.07;;;10.90;97.40;;;;;;5012138;28;20081;-87
2021/11/10 11:28:42;;;;;;;16.80;8.50;;;11.00;96.90;;;;;;5032864;28;20052;-88
2021/11/10 11:31:08;;;;;;;17.30;8.35;;;11.10;96.70;;;;;;4999039;28;20057;-88
2021/11/10 11:33:36;;;;;;;12.80;7.50;;;11.20;96.60;;;;;;5051764;28;20493;-88
2021/11/10 11:36:12;;;;;;;15.10;7.88;;;11.30;96.40;;;;;;4991963;28;20053;-88
2021/11/10 11:38:56;;;;;;;21.95;8.85;;;11.40;95.80;;;;;;5033551;28;20024;-88
2021/11/10 11:41:24;;;;;;;15.57;8.05;;;11.50;95.80;;;;;;5046895;28;20032;-89
2021/11/10 11:43:50;;;;;;;14.93;8.63;;;11.60;95.80;;;;;;5063473;28;20040;-88
2021/11/10 11:46:15;;;;;;;13.85;7.72;;;11.70;95.80;;;;;;5045689;28;20028;-88
2021/11/10 11:48:41;;;;;;;19.15;8.43;;;11.80;95.20;;;;;;5045029;28;20149;-88
2021/11/10 11:51:08;;;;;;;14.15;8.18;;;11.90;95.00;;;;;;5045829;28;20036;-88
2021/11/10 11:53:37;;;;;;;14.25;8.68;;;12.00;94.60;;;;;;5045264;28;20029;-88
2021/11/10 11:56:06;;;;;;;15.55;7.95;;;12.10;94.40;;;;;;5062105;28;20016;-88
2021/11/10 11:58:36;;;;;;;15.07;8.02;;;12.20;93.70;;;;;;5061601;28;20019;-87
2021/11/10 12:01:11;;;;;;;12.52;7.05;;;12.20;94.20;;;;;;5061465;28;20035;-89
2021/11/10 12:03:40;;;;;;;17.55;8.45;;;12.30;94.50;;;;;;5063926;28;20111;-89
2021/11/10 12:06:06;;;;;;;14.07;7.65;;;12.40;94.60;;;;;;5063955;28;20024;-88
2021/11/10 12:08:41;;;;;;;14.70;7.57;;;12.50;94.50;;;;;;5065863;28;20074;-88
2021/11/10 12:11:19;;;;;;;13.45;7.88;;;12.60;93.90;;;;;;5068261;28;20040;-87
2021/11/10 12:14:04;;;;;;;14.18;8.10;;;12.70;94.30;;;;;;5068513;28;20029;-87
2021/11/10 12:16:48;;;;;;;12.98;7.57;;;12.70;93.40;;;;;;5069015;28;20021;-88
2021/11/10 12:19:38;;;;;;;15.18;8.40;;;12.80;93.80;;;;;;5067554;28;20024;-87
2021/11/10 12:22:05;;;;;;;15.82;8.65;;;12.90;93.00;;;;;;5065117;28;20029;-88
2021/11/10 12:24:45;;;;;;;15.65;7.43;;;13.00;93.10;;;;;;5065999;28;20025;-89
2021/11/10 12:27:30;;;;;;;16.42;8.20;;;13.00;93.40;;;;;;5048996;28;20097;-88
2021/11/10 12:30:25;;;;;;;17.08;9.40;;;13.10;93.20;;;;;;5040681;28;20021;-88
2021/11/10 12:33:00;;;;;;;17.30;9.10;;;13.10;92.60;;;;;;5041929;28;20120;-88
2021/11/10 12:35:29;;;;;;;15.48;8.35;;;13.10;91.20;;;;;;5061596;28;20108;-89
2021/11/10 12:37:56;;;;;;;16.20;8.40;;;13.10;90.70;;;;;;5042592;28;20024;-89
2021/11/10 12:40:35;;;;;;;13.85;8.98;;;13.10;91.40;;;;;;5027059;28;20547;-89
2021/11/10 12:43:00;;;;;;;14.60;8.35;;;13.10;91.20;;;;;;5044267;28;20024;-89
2021/11/10 12:45:31;;;;;;;14.23;8.27;;;13.20;91.20;;;;;;5044384;28;20025;-89
2021/11/10 12:48:26;;;;;;;12.40;7.78;;;13.20;91.00;;;;;;5045268;28;20032;-89
2021/11/10 12:50:53;;;;;;;17.42;8.35;;;13.30;90.90;;;;;;5037310;28;20036;-90
2021/11/10 12:56:51;;;;;;;21.60;8.82;;;13.30;90.70;;;;;;5033811;28;20040;-89
2021/11/10 12:59:21;;;;;;;14.77;8.38;;;13.40;90.90;;;;;;5044294;28;20019;-89
2021/11/10 13:01:48;;;;;;;15.30;8.30;;;13.40;90.90;;;;;;5044289;28;20021;-90
2021/11/10 13:04:47;;;;;;;17.30;8.10;;;13.40;91.10;;;;;;5043538;28;20108;-90
2021/11/10 13:07:51;;;;;;;16.60;8.20;;;13.40;91.10;;;;;;4939889;28;20035;-90
2021/11/10 13:10:40;;;;;;;23.33;8.88;;;13.50;90.80;;;;;;4961991;28;20121;-89
2021/11/10 13:13:34;;;;;;;17.30;9.05;;;13.50;90.40;;;;;;5011711;28;20522;-89